sensor_id;sensor_type;location;lat;lon;timestamp;pressure;altitude;pressure_sealevel;temperature;humidity
72640;BME280;60683;51.730;8.762;2023-11-19T16:01:00;99598.16;;;10.39;95.76
72640;BME280;60683;51.730;8.762;2023-11-19T16:03:27;99601.00;;;10.49;94.90
72640;BME280;60683;51.730;8.762;2023-11-19T16:05:55;99592.03;;;10.43;96.08
72640;BME280;60683;51.730;8.762;2023-11-19T16:08:23;99591.75;;;10.40;96.75
72640;BME280;60683;51.730;8.762;2023-11-19T16:10:50;99600.28;;;10.37;97.66
72640;BME280;60683;51.730;8.762;2023-11-19T16:13:18;99598.56;;;10.31;97.69
72640;BME280;60683;51.730;8.762;2023-11-19T16:15:45;99596.72;;;10.31;97.46
72640;BME280;60683;51.730;8.762;2023-11-19T16:18:14;99602.97;;;10.37;96.44
72640;BME280;60683;51.730;8.762;2023-11-19T16:20:42;99601.34;;;10.36;97.01
72640;BME280;60683;51.730;8.762;2023-11-19T16:23:10;99595.47;;;10.39;96.53
72640;BME280;60683;51.730;8.762;2023-11-19T16:25:38;99595.72;;;10.37;96.81
72640;BME280;60683;51.730;8.762;2023-11-19T16:28:05;99598.53;;;10.47;95.31
72640;BME280;60683;51.730;8.762;2023-11-19T16:30:34;99596.09;;;10.46;95.42
72640;BME280;60683;51.730;8.762;2023-11-19T16:33:01;99600.34;;;10.42;96.15
72640;BME280;60683;51.730;8.762;2023-11-19T16:35:30;99599.84;;;10.45;95.72
72640;BME280;60683;51.730;8.762;2023-11-19T16:37:58;99602.28;;;10.46;95.58
72640;BME280;60683;51.730;8.762;2023-11-19T16:40:26;99604.50;;;10.49;94.91
72640;BME280;60683;51.730;8.762;2023-11-19T16:42:54;99603.75;;;10.54;94.23
72640;BME280;60683;51.730;8.762;2023-11-19T16:45:22;99600.50;;;10.52;94.69
72640;BME280;60683;51.730;8.762;2023-11-19T16:47:49;99602.13;;;10.53;94.83
72640;BME280;60683;51.730;8.762;2023-11-19T16:50:17;99612.97;;;10.58;93.49
72640;BME280;60683;51.730;8.762;2023-11-19T16:52:46;99607.09;;;10.61;93.52
72640;BME280;60683;51.730;8.762;2023-11-19T16:55:13;99611.91;;;10.59;93.43
72640;BME280;60683;51.730;8.762;2023-11-19T16:57:42;99596.91;;;10.63;93.04
72640;BME280;60683;51.730;8.762;2023-11-19T17:00:11;99607.41;;;10.65;93.02
72640;BME280;60683;51.730;8.762;2023-11-19T17:02:39;99613.53;;;10.60;93.81
72640;BME280;60683;51.730;8.762;2023-11-19T17:05:08;99619.78;;;10.66;92.76
72640;BME280;60683;51.730;8.762;2023-11-19T17:07:35;99620.28;;;10.63;93.73
72640;BME280;60683;51.730;8.762;2023-11-19T17:10:05;99612.53;;;10.66;92.94
72640;BME280;60683;51.730;8.762;2023-11-19T17:12:34;99614.75;;;10.69;93.31
72640;BME280;60683;51.730;8.762;2023-11-19T17:15:01;99612.53;;;10.66;93.58
72640;BME280;60683;51.730;8.762;2023-11-19T17:17:31;99614.50;;;10.71;93.02
72640;BME280;60683;51.730;8.762;2023-11-19T17:20:01;99614.81;;;10.74;92.71
72640;BME280;60683;51.730;8.762;2023-11-19T17:22:31;99605.03;;;10.68;93.72
72640;BME280;60683;51.730;8.762;2023-11-19T17:25:00;99608.47;;;10.64;94.32
72640;BME280;60683;51.730;8.762;2023-11-19T17:27:30;99603.09;;;10.64;94.35
72640;BME280;60683;51.730;8.762;2023-11-19T17:29:57;99617.09;;;10.66;94.22
72640;BME280;60683;51.730;8.762;2023-11-19T17:32:25;99617.59;;;10.63;95.01
72640;BME280;60683;51.730;8.762;2023-11-19T17:34:52;99617.59;;;10.63;94.63
72640;BME280;60683;51.730;8.762;2023-11-19T17:37:20;99615.56;;;10.70;94.10
72640;BME280;60683;51.730;8.762;2023-11-19T17:39:48;99615.22;;;10.66;94.30
72640;BME280;60683;51.730;8.762;2023-11-19T17:42:16;99622.91;;;10.57;95.81
72640;BME280;60683;51.730;8.762;2023-11-19T17:44:44;99629.00;;;10.53;98.29
72640;BME280;60683;51.730;8.762;2023-11-19T17:47:15;99631.16;;;10.34;100.00
72640;BME280;60683;51.730;8.762;2023-11-19T17:49:42;99626.09;;;10.21;100.00
72640;BME280;60683;51.730;8.762;2023-11-19T17:52:09;99626.13;;;10.09;100.00
72640;BME280;60683;51.730;8.762;2023-11-19T17:54:36;99628.47;;;10.06;100.00
72640;BME280;60683;51.730;8.762;2023-11-19T17:57:05;99632.22;;;10.05;100.00
72640;BME280;60683;51.730;8.762;2023-11-19T17:59:32;99633.50;;;10.02;100.00
72640;BME280;60683;51.730;8.762;2023-11-19T18:02:02;99630.16;;;9.95;100.00
72640;BME280;60683;51.730;8.762;2023-11-19T18:04:28;99626.91;;;9.93;100.00
72640;BME280;60683;51.730;8.762;2023-11-19T18:06:57;99625.38;;;9.97;100.00
72640;BME280;60683;51.730;8.762;2023-11-19T18:09:24;99618.94;;;9.98;100.00
72640;BME280;60683;51.730;8.762;2023-11-19T18:11:53;99624.53;;;9.96;100.00
72640;BME280;60683;51.730;8.762;2023-11-19T18:14:20;99623.16;;;9.94;100.00
72640;BME280;60683;51.730;8.762;2023-11-19T18:16:49;99614.63;;;9.97;100.00
72640;BME280;60683;51.730;8.762;2023-11-19T18:19:18;99622.09;;;9.95;100.00
72640;BME280;60683;51.730;8.762;2023-11-19T18:21:46;99608.91;;;9.93;100.00
72640;BME280;60683;51.730;8.762;2023-11-19T18:24:13;99622.00;;;9.90;100.00
72640;BME280;60683;51.730;8.762;2023-11-19T18:26:42;99625.69;;;9.84;100.00
72640;BME280;60683;51.730;8.762;2023-11-19T18:29:09;99625.34;;;9.80;100.00
72640;BME280;60683;51.730;8.762;2023-11-19T18:31:37;99623.16;;;9.77;100.00
72640;BME280;60683;51.730;8.762;2023-11-19T18:34:05;99627.94;;;9.75;100.00
72640;BME280;60683;51.730;8.762;2023-11-19T18:36:36;99633.53;;;9.74;100.00
72640;BME280;60683;51.730;8.762;2023-11-19T18:39:03;99622.72;;;9.69;100.00
72640;BME280;60683;51.730;8.762;2023-11-19T18:41:31;99638.34;;;9.72;100.00
72640;BME280;60683;51.730;8.762;2023-11-19T18:43:58;99628.09;;;9.69;100.00
72640;BME280;60683;51.730;8.762;2023-11-19T18:46:26;99631.34;;;9.71;100.00
72640;BME280;60683;51.730;8.762;2023-11-19T18:48:54;99629.72;;;9.70;100.00
72640;BME280;60683;51.730;8.762;2023-11-19T18:51:21;99627.25;;;9.68;100.00
72640;BME280;60683;51.730;8.762;2023-11-19T18:53:50;99625.63;;;9.67;100.00
72640;BME280;60683;51.730;8.762;2023-11-19T18:56:17;99625.06;;;9.65;100.00
72640;BME280;60683;51.730;8.762;2023-11-19T18:58:45;99620.97;;;9.62;100.00
72640;BME280;60683;51.730;8.762;2023-11-19T19:01:12;99622.84;;;9.62;100.00
72640;BME280;60683;51.730;8.762;2023-11-19T19:03:41;99613.88;;;9.56;100.00
72640;BME280;60683;51.730;8.762;2023-11-19T19:06:09;99618.91;;;9.53;100.00
72640;BME280;60683;51.730;8.762;2023-11-19T19:08:36;99618.56;;;9.49;100.00
72640;BME280;60683;51.730;8.762;2023-11-19T19:11:08;99617.44;;;9.45;100.00
72640;BME280;60683;51.730;8.762;2023-11-19T19:13:35;99612.06;;;9.45;100.00
72640;BME280;60683;51.730;8.762;2023-11-19T19:16:06;99598.66;;;9.45;100.00
72640;BME280;60683;51.730;8.762;2023-11-19T19:18:33;99610.91;;;9.41;100.00
72640;BME280;60683;51.730;8.762;2023-11-19T19:21:01;99612.63;;;9.47;100.00
72640;BME280;60683;51.730;8.762;2023-11-19T19:23:28;99610.06;;;9.52;100.00
72640;BME280;60683;51.730;8.762;2023-11-19T19:25:55;99611.34;;;9.50;100.00
72640;BME280;60683;51.730;8.762;2023-11-19T19:28:24;99611.59;;;9.48;100.00
72640;BME280;60683;51.730;8.762;2023-11-19T19:30:52;99595.16;;;9.45;100.00
72640;BME280;60683;51.730;8.762;2023-11-19T19:33:19;99590.59;;;9.45;100.00
72640;BME280;60683;51.730;8.762;2023-11-19T19:35:46;99592.69;;;9.43;100.00
72640;BME280;60683;51.730;8.762;2023-11-19T19:38:14;99593.19;;;9.40;100.00
72640;BME280;60683;51.730;8.762;2023-11-19T19:40:42;99596.91;;;9.39;100.00
72640;BME280;60683;51.730;8.762;2023-11-19T19:43:09;99587.22;;;9.38;100.00
72640;BME280;60683;51.730;8.762;2023-11-19T19:45:38;99590.50;;;9.40;100.00
72640;BME280;60683;51.730;8.762;2023-11-19T19:48:06;99588.88;;;9.39;100.00
72640;BME280;60683;51.730;8.762;2023-11-19T19:50:33;99593.66;;;9.37;100.00
72640;BME280;60683;51.730;8.762;2023-11-19T19:53:00;99589.34;;;9.36;100.00
72640;BME280;60683;51.730;8.762;2023-11-19T19:55:28;99585.19;;;9.28;100.00
72640;BME280;60683;51.730;8.762;2023-11-19T19:57:56;99593.34;;;9.34;100.00
72640;BME280;60683;51.730;8.762;2023-11-19T20:00:25;99588.78;;;9.34;100.00
72640;BME280;60683;51.730;8.762;2023-11-19T20:02:53;99587.41;;;9.32;100.00
72640;BME280;60683;51.730;8.762;2023-11-19T20:05:23;99579.34;;;9.32;100.00
72640;BME280;60683;51.730;8.762;2023-11-19T20:07:50;99580.16;;;9.32;100.00
72640;BME280;60683;51.730;8.762;2023-11-19T20:10:19;99574.34;;;9.35;100.00
72640;BME280;60683;51.730;8.762;2023-11-19T20:12:46;99583.97;;;9.36;100.00
72640;BME280;60683;51.730;8.762;2023-11-19T20:15:14;99582.91;;;9.37;100.00
72640;BME280;60683;51.730;8.762;2023-11-19T20:17:45;99577.09;;;9.40;100.00
72640;BME280;60683;51.730;8.762;2023-11-19T20:20:15;99569.84;;;9.41;100.00
72640;BME280;60683;51.730;8.762;2023-11-19T20:22:42;99572.53;;;9.41;100.00
72640;BME280;60683;51.730;8.762;2023-11-19T20:25:10;99564.00;;;9.44;100.00
72640;BME280;60683;51.730;8.762;2023-11-19T20:27:39;99567.59;;;9.49;100.00
72640;BME280;60683;51.730;8.762;2023-11-19T20:30:08;99565.41;;;9.46;100.00
72640;BME280;60683;51.730;8.762;2023-11-19T20:32:35;99566.22;;;9.47;100.00
72640;BME280;60683;51.730;8.762;2023-11-19T20:35:04;99585.00;;;9.47;100.00
72640;BME280;60683;51.730;8.762;2023-11-19T20:37:32;99570.03;;;9.51;100.00
72640;BME280;60683;51.730;8.762;2023-11-19T20:40:03;99570.03;;;9.51;100.00
72640;BME280;60683;51.730;8.762;2023-11-19T20:42:31;99571.09;;;9.50;100.00
72640;BME280;60683;51.730;8.762;2023-11-19T20:45:00;99570.28;;;9.49;100.00
72640;BME280;60683;51.730;8.762;2023-11-19T20:47:27;99577.53;;;9.49;100.00
72640;BME280;60683;51.730;8.762;2023-11-19T20:49:55;99569.13;;;9.45;100.00
72640;BME280;60683;51.730;8.762;2023-11-19T20:52:23;99566.13;;;9.42;100.00
72640;BME280;60683;51.730;8.762;2023-11-19T20:54:51;99562.38;;;9.43;100.00
72640;BME280;60683;51.730;8.762;2023-11-19T20:57:18;99563.44;;;9.42;100.00
72640;BME280;60683;51.730;8.762;2023-11-19T20:59:47;99556.44;;;9.41;100.00
72640;BME280;60683;51.730;8.762;2023-11-19T21:02:14;99562.72;;;9.46;100.00
72640;BME280;60683;51.730;8.762;2023-11-19T21:04:42;99560.50;;;9.43;100.00
72640;BME280;60683;51.730;8.762;2023-11-19T21:07:10;99567.03;;;9.47;100.00
72640;BME280;60683;51.730;8.762;2023-11-19T21:09:37;99560.13;;;9.51;100.00
72640;BME280;60683;51.730;8.762;2023-11-19T21:12:06;99568.19;;;9.51;100.00
72640;BME280;60683;51.730;8.762;2023-11-19T21:14:34;99560.94;;;9.52;100.00
72640;BME280;60683;51.730;8.762;2023-11-19T21:17:01;99551.75;;;9.48;100.00
72640;BME280;60683;51.730;8.762;2023-11-19T21:19:29;99557.69;;;9.50;100.00
72640;BME280;60683;51.730;8.762;2023-11-19T21:21:58;99551.50;;;9.49;100.00
72640;BME280;60683;51.730;8.762;2023-11-19T21:24:25;99555.25;;;9.48;100.00
72640;BME280;60683;51.730;8.762;2023-11-19T21:26:54;99560.03;;;9.46;100.00
72640;BME280;60683;51.730;8.762;2023-11-19T21:29:22;99555.47;;;9.47;100.00
72640;BME280;60683;51.730;8.762;2023-11-19T21:31:49;99554.31;;;9.43;100.00
72640;BME280;60683;51.730;8.762;2023-11-19T21:34:16;99549.31;;;9.46;100.00
72640;BME280;60683;51.730;8.762;2023-11-19T21:36:43;99548.72;;;9.44;100.00
72640;BME280;60683;51.730;8.762;2023-11-19T21:39:10;99546.63;;;9.46;100.00
72640;BME280;60683;51.730;8.762;2023-11-19T21:41:37;99544.75;;;9.47;100.00
72640;BME280;60683;51.730;8.762;2023-11-19T21:44:05;99542.31;;;9.45;100.00
72640;BME280;60683;51.730;8.762;2023-11-19T21:46:34;99550.13;;;9.47;100.00
72640;BME280;60683;51.730;8.762;2023-11-19T21:49:01;99538.91;;;9.50;100.00
72640;BME280;60683;51.730;8.762;2023-11-19T21:51:28;99527.34;;;9.49;100.00
72640;BME280;60683;51.730;8.762;2023-11-19T21:53:56;99534.59;;;9.49;100.00
72640;BME280;60683;51.730;8.762;2023-11-19T21:56:22;99527.44;;;9.54;100.00
72640;BME280;60683;51.730;8.762;2023-11-19T21:58:50;99530.94;;;9.55;100.00
72640;BME280;60683;51.730;8.762;2023-11-19T22:01:17;99523.22;;;9.58;100.00
72640;BME280;60683;51.730;8.762;2023-11-19T22:03:45;99525.66;;;9.60;100.00
72640;BME280;60683;51.730;8.762;2023-11-19T22:06:16;99529.66;;;9.57;100.00
72640;BME280;60683;51.730;8.762;2023-11-19T22:08:44;99526.97;;;9.57;100.00
72640;BME280;60683;51.730;8.762;2023-11-19T22:11:11;99524.75;;;9.54;100.00
72640;BME280;60683;51.730;8.762;2023-11-19T22:13:39;99522.41;;;9.58;100.00
72640;BME280;60683;51.730;8.762;2023-11-19T22:16:06;99525.91;;;9.58;100.00
72640;BME280;60683;51.730;8.762;2023-11-19T22:18:34;99519.25;;;9.61;100.00
72640;BME280;60683;51.730;8.762;2023-11-19T22:21:02;99518.44;;;9.60;100.00
72640;BME280;60683;51.730;8.762;2023-11-19T22:23:29;99515.03;;;9.65;100.00
72640;BME280;60683;51.730;8.762;2023-11-19T22:25:56;99514.53;;;9.68;100.00
72640;BME280;60683;51.730;8.762;2023-11-19T22:28:23;99517.31;;;9.73;100.00
72640;BME280;60683;51.730;8.762;2023-11-19T22:30:50;99510.50;;;9.82;100.00
72640;BME280;60683;51.730;8.762;2023-11-19T22:33:18;99515.19;;;9.92;100.00
72640;BME280;60683;51.730;8.762;2023-11-19T22:35:45;99506.00;;;9.88;100.00
72640;BME280;60683;51.730;8.762;2023-11-19T22:38:14;99490.47;;;9.90;100.00
72640;BME280;60683;51.730;8.762;2023-11-19T22:40:41;99487.28;;;9.93;100.00
72640;BME280;60683;51.730;8.762;2023-11-19T22:43:08;99504.44;;;9.92;100.00
72640;BME280;60683;51.730;8.762;2023-11-19T22:45:35;99506.81;;;9.88;100.00
72640;BME280;60683;51.730;8.762;2023-11-19T22:48:03;99490.88;;;9.82;100.00
72640;BME280;60683;51.730;8.762;2023-11-19T22:50:30;99491.47;;;9.84;100.00
72640;BME280;60683;51.730;8.762;2023-11-19T22:52:57;99490.41;;;9.85;100.00
72640;BME280;60683;51.730;8.762;2023-11-19T22:55:27;99494.38;;;9.82;100.00
72640;BME280;60683;51.730;8.762;2023-11-19T22:57:54;99494.53;;;9.76;100.00
72640;BME280;60683;51.730;8.762;2023-11-19T23:00:22;99497.38;;;9.69;100.00
72640;BME280;60683;51.730;8.762;2023-11-19T23:02:55;99504.06;;;9.67;100.00
72640;BME280;60683;51.730;8.762;2023-11-19T23:05:22;99506.75;;;9.67;100.00
72640;BME280;60683;51.730;8.762;2023-11-19T23:07:49;99504.88;;;9.67;100.00
72640;BME280;60683;51.730;8.762;2023-11-19T23:10:16;99505.09;;;9.66;100.00
72640;BME280;60683;51.730;8.762;2023-11-19T23:12:45;99506.75;;;9.67;100.00
72640;BME280;60683;51.730;8.762;2023-11-19T23:15:12;99505.69;;;9.68;100.00
72640;BME280;60683;51.730;8.762;2023-11-19T23:17:41;99511.28;;;9.66;100.00
72640;BME280;60683;51.730;8.762;2023-11-19T23:20:09;99509.66;;;9.65;100.00
72640;BME280;60683;51.730;8.762;2023-11-19T23:22:38;99499.75;;;9.66;100.00
72640;BME280;60683;51.730;8.762;2023-11-19T23:25:07;99513.25;;;9.71;100.00
72640;BME280;60683;51.730;8.762;2023-11-19T23:27:35;99512.91;;;9.67;100.00
72640;BME280;60683;51.730;8.762;2023-11-19T23:30:05;99511.03;;;9.68;100.00
72640;BME280;60683;51.730;8.762;2023-11-19T23:32:33;99517.47;;;9.67;100.00
72640;BME280;60683;51.730;8.762;2023-11-19T23:35:01;99508.94;;;9.70;100.00
72640;BME280;60683;51.730;8.762;2023-11-19T23:37:28;99516.50;;;9.73;100.00
72640;BME280;60683;51.730;8.762;2023-11-19T23:39:55;99521.38;;;9.76;100.00
72640;BME280;60683;51.730;8.762;2023-11-19T23:42:23;99515.44;;;9.74;100.00
72640;BME280;60683;51.730;8.762;2023-11-19T23:44:50;99511.94;;;9.73;100.00
72640;BME280;60683;51.730;8.762;2023-11-19T23:47:18;99516.25;;;9.74;100.00
72640;BME280;60683;51.730;8.762;2023-11-19T23:49:45;99515.28;;;9.80;100.00
72640;BME280;60683;51.730;8.762;2023-11-19T23:52:14;99511.56;;;9.81;100.00
72640;BME280;60683;51.730;8.762;2023-11-19T23:54:41;99517.50;;;9.83;100.00
72640;BME280;60683;51.730;8.762;2023-11-19T23:57:09;99509.19;;;9.85;100.00
72640;BME280;60683;51.730;8.762;2023-11-19T23:59:36;99512.13;;;9.83;100.00
